sensor_id;sensor_type;location;lat;lon;timestamp;pressure;altitude;pressure_sealevel;temperature;humidity
62946;BME280;52164;52.212;-1.010;2022-10-18T00:01:04;101581.98;;;9.23;73.18
62946;BME280;52164;52.212;-1.010;2022-10-18T00:03:30;101581.80;;;9.14;73.62
62946;BME280;52164;52.212;-1.010;2022-10-18T00:05:56;101583.67;;;9.11;74.32
62946;BME280;52164;52.212;-1.010;2022-10-18T00:08:22;101586.15;;;9.10;74.26
62946;BME280;52164;52.212;-1.010;2022-10-18T00:10:48;101584.92;;;9.12;74.43
62946;BME280;52164;52.212;-1.010;2022-10-18T00:13:14;101580.70;;;9.14;74.21
62946;BME280;52164;52.212;-1.010;2022-10-18T00:15:47;101573.02;;;9.12;74.12
62946;BME280;52164;52.212;-1.010;2022-10-18T00:18:13;101572.98;;;9.11;74.13
62946;BME280;52164;52.212;-1.010;2022-10-18T00:20:38;101579.56;;;9.10;74.35
62946;BME280;52164;52.212;-1.010;2022-10-18T00:23:03;101582.38;;;9.09;74.29
62946;BME280;52164;52.212;-1.010;2022-10-18T00:25:29;101583.73;;;9.06;74.43
62946;BME280;52164;52.212;-1.010;2022-10-18T00:27:54;101584.88;;;9.02;74.72
62946;BME280;52164;52.212;-1.010;2022-10-18T00:30:19;101588.30;;;8.95;74.59
62946;BME280;52164;52.212;-1.010;2022-10-18T00:32:47;101589.64;;;8.92;74.49
62946;BME280;52164;52.212;-1.010;2022-10-18T00:35:12;101591.55;;;8.90;74.51
62946;BME280;52164;52.212;-1.010;2022-10-18T00:37:38;101593.04;;;8.86;74.71
62946;BME280;52164;52.212;-1.010;2022-10-18T00:40:04;101597.23;;;8.82;74.86
62946;BME280;52164;52.212;-1.010;2022-10-18T00:42:32;101601.65;;;8.80;75.03
62946;BME280;52164;52.212;-1.010;2022-10-18T00:45:04;101603.73;;;8.78;74.98
62946;BME280;52164;52.212;-1.010;2022-10-18T00:47:31;101599.41;;;8.77;75.05
62946;BME280;52164;52.212;-1.010;2022-10-18T00:50:01;101604.94;;;8.77;75.14
62946;BME280;52164;52.212;-1.010;2022-10-18T00:52:33;101602.65;;;8.77;75.20
62946;BME280;52164;52.212;-1.010;2022-10-18T00:54:59;101600.67;;;8.78;75.11
62946;BME280;52164;52.212;-1.010;2022-10-18T00:57:26;101601.70;;;8.76;75.12
62946;BME280;52164;52.212;-1.010;2022-10-18T00:59:52;101601.83;;;8.73;75.07
62946;BME280;52164;52.212;-1.010;2022-10-18T01:02:18;101612.40;;;8.70;74.85
62946;BME280;52164;52.212;-1.010;2022-10-18T01:04:45;101614.92;;;8.63;75.16
62946;BME280;52164;52.212;-1.010;2022-10-18T01:07:35;101613.70;;;8.58;75.39
62946;BME280;52164;52.212;-1.010;2022-10-18T01:12:43;101616.71;;;8.57;75.42
62946;BME280;52164;52.212;-1.010;2022-10-18T01:15:56;101622.70;;;8.55;75.14
62946;BME280;52164;52.212;-1.010;2022-10-18T01:18:35;101628.02;;;8.54;75.13
62946;BME280;52164;52.212;-1.010;2022-10-18T01:21:12;101627.95;;;8.51;75.15
62946;BME280;52164;52.212;-1.010;2022-10-18T01:26:55;101631.27;;;8.49;75.16
62946;BME280;52164;52.212;-1.010;2022-10-18T01:29:39;101630.76;;;8.44;74.66
62946;BME280;52164;52.212;-1.010;2022-10-18T01:32:16;101633.38;;;8.36;74.42
62946;BME280;52164;52.212;-1.010;2022-10-18T01:34:44;101637.12;;;8.30;74.37
62946;BME280;52164;52.212;-1.010;2022-10-18T01:37:13;101646.36;;;8.22;74.25
62946;BME280;52164;52.212;-1.010;2022-10-18T01:39:44;101648.65;;;8.16;73.95
62946;BME280;52164;52.212;-1.010;2022-10-18T01:42:13;101654.85;;;8.08;73.80
62946;BME280;52164;52.212;-1.010;2022-10-18T01:44:43;101657.56;;;7.98;74.00
62946;BME280;52164;52.212;-1.010;2022-10-18T01:47:12;101647.46;;;7.86;73.66
62946;BME280;52164;52.212;-1.010;2022-10-18T01:49:38;101643.21;;;7.74;74.14
62946;BME280;52164;52.212;-1.010;2022-10-18T01:52:04;101642.92;;;7.65;74.24
62946;BME280;52164;52.212;-1.010;2022-10-18T01:54:33;101645.90;;;7.57;74.49
62946;BME280;52164;52.212;-1.010;2022-10-18T01:59:35;101649.16;;;7.53;74.48
62946;BME280;52164;52.212;-1.010;2022-10-18T02:03:23;101652.59;;;7.49;74.84
62946;BME280;52164;52.212;-1.010;2022-10-18T02:07:41;101652.20;;;7.49;75.39
62946;BME280;52164;52.212;-1.010;2022-10-18T02:10:17;101654.88;;;7.49;75.41
62946;BME280;52164;52.212;-1.010;2022-10-18T02:12:47;101658.55;;;7.47;75.50
62946;BME280;52164;52.212;-1.010;2022-10-18T02:15:16;101660.34;;;7.48;75.92
62946;BME280;52164;52.212;-1.010;2022-10-18T02:17:44;101662.00;;;7.49;76.07
62946;BME280;52164;52.212;-1.010;2022-10-18T02:20:13;101662.80;;;7.52;75.86
62946;BME280;52164;52.212;-1.010;2022-10-18T02:22:41;101660.37;;;7.54;76.09
62946;BME280;52164;52.212;-1.010;2022-10-18T02:25:18;101667.83;;;7.54;76.24
62946;BME280;52164;52.212;-1.010;2022-10-18T02:27:45;101667.81;;;7.53;75.96
62946;BME280;52164;52.212;-1.010;2022-10-18T02:30:11;101674.83;;;7.51;75.45
62946;BME280;52164;52.212;-1.010;2022-10-18T02:32:45;101675.15;;;7.49;75.54
62946;BME280;52164;52.212;-1.010;2022-10-18T02:35:34;101677.14;;;7.50;75.42
62946;BME280;52164;52.212;-1.010;2022-10-18T02:38:01;101680.51;;;7.50;75.83
62946;BME280;52164;52.212;-1.010;2022-10-18T02:40:28;101679.28;;;7.51;76.02
62946;BME280;52164;52.212;-1.010;2022-10-18T02:42:56;101681.25;;;7.51;76.13
62946;BME280;52164;52.212;-1.010;2022-10-18T02:45:23;101685.74;;;7.53;75.65
62946;BME280;52164;52.212;-1.010;2022-10-18T02:47:49;101681.33;;;7.54;75.87
62946;BME280;52164;52.212;-1.010;2022-10-18T02:50:15;101681.15;;;7.54;75.71
62946;BME280;52164;52.212;-1.010;2022-10-18T02:52:41;101685.46;;;7.56;75.97
62946;BME280;52164;52.212;-1.010;2022-10-18T02:55:07;101691.89;;;7.57;75.59
62946;BME280;52164;52.212;-1.010;2022-10-18T02:57:34;101693.27;;;7.55;75.32
62946;BME280;52164;52.212;-1.010;2022-10-18T02:59:59;101691.00;;;7.51;75.54
62946;BME280;52164;52.212;-1.010;2022-10-18T03:02:25;101693.70;;;7.46;75.52
62946;BME280;52164;52.212;-1.010;2022-10-18T03:04:50;101692.36;;;7.44;75.28
62946;BME280;52164;52.212;-1.010;2022-10-18T03:07:15;101694.25;;;7.41;75.32
62946;BME280;52164;52.212;-1.010;2022-10-18T03:09:41;101695.36;;;7.37;75.25
62946;BME280;52164;52.212;-1.010;2022-10-18T03:12:06;101695.02;;;7.32;75.35
62946;BME280;52164;52.212;-1.010;2022-10-18T03:14:32;101699.70;;;7.29;75.88
62946;BME280;52164;52.212;-1.010;2022-10-18T03:16:57;101699.61;;;7.26;75.73
62946;BME280;52164;52.212;-1.010;2022-10-18T03:19:22;101697.97;;;7.25;75.79
62946;BME280;52164;52.212;-1.010;2022-10-18T03:21:48;101698.47;;;7.23;75.74
62946;BME280;52164;52.212;-1.010;2022-10-18T03:24:14;101699.89;;;7.23;75.84
62946;BME280;52164;52.212;-1.010;2022-10-18T03:26:39;101699.61;;;7.20;75.30
62946;BME280;52164;52.212;-1.010;2022-10-18T03:29:04;101705.53;;;7.17;74.90
62946;BME280;52164;52.212;-1.010;2022-10-18T03:31:30;101713.77;;;7.13;74.71
62946;BME280;52164;52.212;-1.010;2022-10-18T03:33:57;101714.72;;;7.10;75.09
62946;BME280;52164;52.212;-1.010;2022-10-18T03:36:22;101719.91;;;7.06;75.14
62946;BME280;52164;52.212;-1.010;2022-10-18T03:38:48;101720.69;;;7.03;75.19
62946;BME280;52164;52.212;-1.010;2022-10-18T03:41:13;101717.71;;;6.99;75.42
62946;BME280;52164;52.212;-1.010;2022-10-18T03:43:39;101715.13;;;6.96;75.00
62946;BME280;52164;52.212;-1.010;2022-10-18T03:46:04;101712.96;;;6.90;74.61
62946;BME280;52164;52.212;-1.010;2022-10-18T03:48:30;101712.42;;;6.84;75.15
62946;BME280;52164;52.212;-1.010;2022-10-18T03:50:56;101717.55;;;6.78;75.27
62946;BME280;52164;52.212;-1.010;2022-10-18T03:53:21;101717.40;;;6.69;75.40
62946;BME280;52164;52.212;-1.010;2022-10-18T03:55:51;101716.82;;;6.63;75.26
62946;BME280;52164;52.212;-1.010;2022-10-18T03:58:17;101721.96;;;6.62;75.47
62946;BME280;52164;52.212;-1.010;2022-10-18T04:00:43;101721.56;;;6.61;75.58
62946;BME280;52164;52.212;-1.010;2022-10-18T04:03:08;101722.58;;;6.60;75.55
62946;BME280;52164;52.212;-1.010;2022-10-18T04:05:34;101716.10;;;6.57;75.66
62946;BME280;52164;52.212;-1.010;2022-10-18T04:08:00;101715.35;;;6.56;75.63
62946;BME280;52164;52.212;-1.010;2022-10-18T04:10:26;101720.13;;;6.56;75.80
62946;BME280;52164;52.212;-1.010;2022-10-18T04:12:52;101726.59;;;6.58;75.84
62946;BME280;52164;52.212;-1.010;2022-10-18T04:15:17;101727.09;;;6.57;76.09
62946;BME280;52164;52.212;-1.010;2022-10-18T04:17:43;101726.30;;;6.55;75.61
62946;BME280;52164;52.212;-1.010;2022-10-18T04:20:09;101727.09;;;6.52;75.60
62946;BME280;52164;52.212;-1.010;2022-10-18T04:22:35;101726.34;;;6.51;75.60
62946;BME280;52164;52.212;-1.010;2022-10-18T04:25:00;101729.09;;;6.48;75.60
62946;BME280;52164;52.212;-1.010;2022-10-18T04:27:25;101731.98;;;6.45;75.23
62946;BME280;52164;52.212;-1.010;2022-10-18T04:29:51;101735.69;;;6.40;75.31
62946;BME280;52164;52.212;-1.010;2022-10-18T04:32:16;101734.38;;;6.33;75.42
62946;BME280;52164;52.212;-1.010;2022-10-18T04:34:43;101740.71;;;6.27;75.66
62946;BME280;52164;52.212;-1.010;2022-10-18T04:37:10;101738.36;;;6.21;75.81
62946;BME280;52164;52.212;-1.010;2022-10-18T04:39:36;101736.48;;;6.18;75.81
62946;BME280;52164;52.212;-1.010;2022-10-18T04:42:01;101733.92;;;6.16;75.97
62946;BME280;52164;52.212;-1.010;2022-10-18T04:44:26;101734.59;;;6.15;75.93
62946;BME280;52164;52.212;-1.010;2022-10-18T04:46:52;101735.97;;;6.13;76.17
62946;BME280;52164;52.212;-1.010;2022-10-18T04:49:17;101733.15;;;6.14;76.54
62946;BME280;52164;52.212;-1.010;2022-10-18T04:51:43;101733.55;;;6.15;76.33
62946;BME280;52164;52.212;-1.010;2022-10-18T04:54:08;101733.91;;;6.16;76.19
62946;BME280;52164;52.212;-1.010;2022-10-18T04:56:33;101738.04;;;6.17;75.92
62946;BME280;52164;52.212;-1.010;2022-10-18T04:58:59;101735.89;;;6.16;75.46
62946;BME280;52164;52.212;-1.010;2022-10-18T05:01:24;101732.07;;;6.13;75.19
62946;BME280;52164;52.212;-1.010;2022-10-18T05:03:51;101730.98;;;6.08;74.92
62946;BME280;52164;52.212;-1.010;2022-10-18T05:06:18;101733.74;;;6.02;74.86
62946;BME280;52164;52.212;-1.010;2022-10-18T05:08:43;101736.55;;;5.93;74.66
62946;BME280;52164;52.212;-1.010;2022-10-18T05:11:09;101742.24;;;5.84;75.19
62946;BME280;52164;52.212;-1.010;2022-10-18T05:13:34;101747.79;;;5.76;75.25
62946;BME280;52164;52.212;-1.010;2022-10-18T05:15:59;101750.25;;;5.71;75.30
62946;BME280;52164;52.212;-1.010;2022-10-18T05:18:27;101752.83;;;5.69;75.54
62946;BME280;52164;52.212;-1.010;2022-10-18T05:20:52;101752.66;;;5.65;75.59
62946;BME280;52164;52.212;-1.010;2022-10-18T05:23:18;101750.88;;;5.60;75.58
62946;BME280;52164;52.212;-1.010;2022-10-18T05:25:43;101752.48;;;5.56;75.69
62946;BME280;52164;52.212;-1.010;2022-10-18T05:28:09;101756.27;;;5.54;75.58
62946;BME280;52164;52.212;-1.010;2022-10-18T05:30:37;101762.59;;;5.52;75.60
62946;BME280;52164;52.212;-1.010;2022-10-18T05:33:03;101762.76;;;5.52;75.52
62946;BME280;52164;52.212;-1.010;2022-10-18T05:35:32;101760.52;;;5.49;75.63
62946;BME280;52164;52.212;-1.010;2022-10-18T05:38:03;101754.05;;;5.46;75.98
62946;BME280;52164;52.212;-1.010;2022-10-18T05:40:28;101750.76;;;5.44;75.93
62946;BME280;52164;52.212;-1.010;2022-10-18T05:42:54;101754.35;;;5.41;75.99
62946;BME280;52164;52.212;-1.010;2022-10-18T05:45:19;101755.66;;;5.38;75.71
62946;BME280;52164;52.212;-1.010;2022-10-18T05:47:45;101755.91;;;5.35;75.82
62946;BME280;52164;52.212;-1.010;2022-10-18T05:50:10;101761.20;;;5.31;75.63
62946;BME280;52164;52.212;-1.010;2022-10-18T05:52:36;101763.98;;;5.25;75.98
62946;BME280;52164;52.212;-1.010;2022-10-18T05:55:01;101763.23;;;5.20;76.16
62946;BME280;52164;52.212;-1.010;2022-10-18T05:57:27;101770.41;;;5.18;76.01
62946;BME280;52164;52.212;-1.010;2022-10-18T05:59:52;101782.02;;;5.17;76.38
62946;BME280;52164;52.212;-1.010;2022-10-18T06:02:17;101781.50;;;5.17;76.49
62946;BME280;52164;52.212;-1.010;2022-10-18T06:04:43;101775.36;;;5.18;76.74
62946;BME280;52164;52.212;-1.010;2022-10-18T06:07:09;101777.55;;;5.20;76.88
62946;BME280;52164;52.212;-1.010;2022-10-18T06:09:35;101782.23;;;5.22;76.93
62946;BME280;52164;52.212;-1.010;2022-10-18T06:12:02;101781.94;;;5.23;76.87
62946;BME280;52164;52.212;-1.010;2022-10-18T06:14:28;101782.58;;;5.26;76.93
62946;BME280;52164;52.212;-1.010;2022-10-18T06:16:53;101783.16;;;5.27;76.67
62946;BME280;52164;52.212;-1.010;2022-10-18T06:19:21;101781.05;;;5.27;76.67
62946;BME280;52164;52.212;-1.010;2022-10-18T06:21:47;101775.20;;;5.27;76.57
62946;BME280;52164;52.212;-1.010;2022-10-18T06:24:12;101775.02;;;5.26;76.63
62946;BME280;52164;52.212;-1.010;2022-10-18T06:26:38;101782.26;;;5.26;76.71
62946;BME280;52164;52.212;-1.010;2022-10-18T06:29:03;101785.73;;;5.25;76.71
62946;BME280;52164;52.212;-1.010;2022-10-18T06:31:28;101791.13;;;5.22;76.63
62946;BME280;52164;52.212;-1.010;2022-10-18T06:33:55;101790.58;;;5.19;76.47
62946;BME280;52164;52.212;-1.010;2022-10-18T06:36:24;101791.48;;;5.15;76.35
62946;BME280;52164;52.212;-1.010;2022-10-18T06:38:52;101791.60;;;5.13;76.57
62946;BME280;52164;52.212;-1.010;2022-10-18T06:41:18;101791.27;;;5.13;76.61
62946;BME280;52164;52.212;-1.010;2022-10-18T06:43:49;101787.69;;;5.13;76.56
62946;BME280;52164;52.212;-1.010;2022-10-18T06:46:14;101789.55;;;5.10;76.85
62946;BME280;52164;52.212;-1.010;2022-10-18T06:48:40;101785.77;;;5.09;76.82
62946;BME280;52164;52.212;-1.010;2022-10-18T06:51:06;101783.85;;;5.09;77.02
62946;BME280;52164;52.212;-1.010;2022-10-18T06:53:35;101781.84;;;5.12;76.94
62946;BME280;52164;52.212;-1.010;2022-10-18T06:56:02;101780.04;;;5.16;77.08
62946;BME280;52164;52.212;-1.010;2022-10-18T06:58:28;101785.80;;;5.18;77.17
62946;BME280;52164;52.212;-1.010;2022-10-18T07:00:54;101788.41;;;5.21;77.03
62946;BME280;52164;52.212;-1.010;2022-10-18T07:03:23;101785.89;;;5.24;76.51
62946;BME280;52164;52.212;-1.010;2022-10-18T07:05:50;101783.36;;;5.27;76.21
62946;BME280;52164;52.212;-1.010;2022-10-18T07:08:16;101786.56;;;5.28;75.96
62946;BME280;52164;52.212;-1.010;2022-10-18T07:10:49;101792.05;;;5.28;75.92
62946;BME280;52164;52.212;-1.010;2022-10-18T07:13:15;101797.73;;;5.28;75.96
62946;BME280;52164;52.212;-1.010;2022-10-18T07:15:41;101804.89;;;5.30;75.38
62946;BME280;52164;52.212;-1.010;2022-10-18T07:18:06;101808.63;;;5.31;75.59
62946;BME280;52164;52.212;-1.010;2022-10-18T07:20:32;101813.95;;;5.31;75.86
62946;BME280;52164;52.212;-1.010;2022-10-18T07:22:57;101822.02;;;5.33;75.89
62946;BME280;52164;52.212;-1.010;2022-10-18T07:25:23;101824.15;;;5.38;75.92
62946;BME280;52164;52.212;-1.010;2022-10-18T07:27:48;101831.55;;;5.41;76.01
62946;BME280;52164;52.212;-1.010;2022-10-18T07:30:13;101835.67;;;5.46;76.25
62946;BME280;52164;52.212;-1.010;2022-10-18T07:32:39;101831.61;;;5.51;76.27
62946;BME280;52164;52.212;-1.010;2022-10-18T07:35:05;101832.55;;;5.57;76.45
62946;BME280;52164;52.212;-1.010;2022-10-18T07:37:31;101838.74;;;5.65;76.43
62946;BME280;52164;52.212;-1.010;2022-10-18T07:39:58;101849.45;;;5.76;76.30
62946;BME280;52164;52.212;-1.010;2022-10-18T07:42:23;101854.36;;;5.88;76.06
62946;BME280;52164;52.212;-1.010;2022-10-18T07:44:49;101855.33;;;5.97;76.02
62946;BME280;52164;52.212;-1.010;2022-10-18T07:47:14;101860.61;;;6.06;76.11
62946;BME280;52164;52.212;-1.010;2022-10-18T07:49:40;101860.86;;;6.12;75.98
62946;BME280;52164;52.212;-1.010;2022-10-18T07:52:05;101858.73;;;6.16;75.78
62946;BME280;52164;52.212;-1.010;2022-10-18T07:54:30;101851.33;;;6.22;75.45
62946;BME280;52164;52.212;-1.010;2022-10-18T07:56:56;101848.33;;;6.27;75.62
62946;BME280;52164;52.212;-1.010;2022-10-18T07:59:21;101856.11;;;6.30;75.44
62946;BME280;52164;52.212;-1.010;2022-10-18T08:01:47;101868.33;;;6.35;75.41
62946;BME280;52164;52.212;-1.010;2022-10-18T08:04:13;101874.33;;;6.39;75.52
62946;BME280;52164;52.212;-1.010;2022-10-18T08:06:38;101876.60;;;6.43;75.54
62946;BME280;52164;52.212;-1.010;2022-10-18T08:09:04;101878.77;;;6.48;75.38
62946;BME280;52164;52.212;-1.010;2022-10-18T08:11:31;101883.23;;;6.53;75.64
62946;BME280;52164;52.212;-1.010;2022-10-18T08:13:57;101889.71;;;6.61;75.71
62946;BME280;52164;52.212;-1.010;2022-10-18T08:16:25;101896.61;;;6.69;76.17
62946;BME280;52164;52.212;-1.010;2022-10-18T08:18:51;101898.96;;;6.80;76.12
62946;BME280;52164;52.212;-1.010;2022-10-18T08:21:19;101901.73;;;6.93;76.13
62946;BME280;52164;52.212;-1.010;2022-10-18T08:23:45;101898.60;;;7.04;76.04
62946;BME280;52164;52.212;-1.010;2022-10-18T08:26:14;101903.34;;;7.17;76.12
62946;BME280;52164;52.212;-1.010;2022-10-18T08:28:40;101913.00;;;7.30;76.07
62946;BME280;52164;52.212;-1.010;2022-10-18T08:31:09;101917.30;;;7.40;75.90
62946;BME280;52164;52.212;-1.010;2022-10-18T08:33:34;101920.14;;;7.50;75.98
62946;BME280;52164;52.212;-1.010;2022-10-18T08:36:02;101920.92;;;7.63;75.61
62946;BME280;52164;52.212;-1.010;2022-10-18T08:38:34;101919.70;;;7.74;75.75
62946;BME280;52164;52.212;-1.010;2022-10-18T08:41:19;101916.30;;;7.84;76.05
62946;BME280;52164;52.212;-1.010;2022-10-18T08:44:01;101915.02;;;7.93;75.86
62946;BME280;52164;52.212;-1.010;2022-10-18T08:46:31;101921.77;;;8.04;75.95
62946;BME280;52164;52.212;-1.010;2022-10-18T08:48:58;101923.69;;;8.14;76.23
62946;BME280;52164;52.212;-1.010;2022-10-18T08:51:33;101929.38;;;8.24;76.17
62946;BME280;52164;52.212;-1.010;2022-10-18T08:54:05;101934.93;;;8.37;76.09
62946;BME280;52164;52.212;-1.010;2022-10-18T08:56:32;101937.48;;;8.49;76.42
62946;BME280;52164;52.212;-1.010;2022-10-18T08:59:01;101940.37;;;8.62;76.28
62946;BME280;52164;52.212;-1.010;2022-10-18T09:01:34;101943.63;;;8.75;76.61
62946;BME280;52164;52.212;-1.010;2022-10-18T09:06:38;101943.86;;;8.89;76.45
62946;BME280;52164;52.212;-1.010;2022-10-18T09:07:37;101947.80;;;9.09;76.30
62946;BME280;52164;52.212;-1.010;2022-10-18T09:13:43;101953.77;;;9.43;76.10
62946;BME280;52164;52.212;-1.010;2022-10-18T09:16:10;101959.89;;;9.58;76.07
62946;BME280;52164;52.212;-1.010;2022-10-18T09:18:54;101962.88;;;9.70;75.86
62946;BME280;52164;52.212;-1.010;2022-10-18T09:24:11;101961.06;;;9.96;75.74
62946;BME280;52164;52.212;-1.010;2022-10-18T09:26:43;101963.65;;;10.07;75.69
62946;BME280;52164;52.212;-1.010;2022-10-18T09:29:17;101961.08;;;10.18;75.49
62946;BME280;52164;52.212;-1.010;2022-10-18T09:32:55;101960.84;;;10.29;75.39
62946;BME280;52164;52.212;-1.010;2022-10-18T09:34:36;101957.44;;;10.43;75.25
62946;BME280;52164;52.212;-1.010;2022-10-18T09:37:11;101955.77;;;10.56;75.46
62946;BME280;52164;52.212;-1.010;2022-10-18T09:39:38;101949.86;;;10.70;75.25
62946;BME280;52164;52.212;-1.010;2022-10-18T09:42:16;101957.08;;;10.83;75.12
62946;BME280;52164;52.212;-1.010;2022-10-18T09:44:46;101963.48;;;10.97;75.01
62946;BME280;52164;52.212;-1.010;2022-10-18T09:47:16;101962.52;;;11.10;74.84
62946;BME280;52164;52.212;-1.010;2022-10-18T09:49:45;101968.08;;;11.21;74.76
62946;BME280;52164;52.212;-1.010;2022-10-18T09:52:16;101967.39;;;11.31;74.55
62946;BME280;52164;52.212;-1.010;2022-10-18T09:54:50;101965.95;;;11.39;74.27
62946;BME280;52164;52.212;-1.010;2022-10-18T09:57:50;101962.52;;;11.47;74.01
62946;BME280;52164;52.212;-1.010;2022-10-18T10:00:21;101958.77;;;11.56;74.24
62946;BME280;52164;52.212;-1.010;2022-10-18T10:02:49;101961.58;;;11.63;73.84
62946;BME280;52164;52.212;-1.010;2022-10-18T10:05:14;101958.48;;;11.69;73.92
62946;BME280;52164;52.212;-1.010;2022-10-18T10:07:44;101956.27;;;11.76;73.88
62946;BME280;52164;52.212;-1.010;2022-10-18T10:10:16;101959.46;;;11.84;73.77
62946;BME280;52164;52.212;-1.010;2022-10-18T10:12:44;101964.98;;;11.92;73.45
62946;BME280;52164;52.212;-1.010;2022-10-18T10:15:27;101968.02;;;12.01;73.63
62946;BME280;52164;52.212;-1.010;2022-10-18T10:17:59;101968.57;;;12.12;73.73
62946;BME280;52164;52.212;-1.010;2022-10-18T10:20:33;101968.59;;;12.24;73.44
62946;BME280;52164;52.212;-1.010;2022-10-18T10:23:06;101970.92;;;12.35;73.11
62946;BME280;52164;52.212;-1.010;2022-10-18T10:25:36;101966.95;;;12.45;72.94
62946;BME280;52164;52.212;-1.010;2022-10-18T10:28:11;101970.30;;;12.53;72.71
62946;BME280;52164;52.212;-1.010;2022-10-18T10:30:38;101966.82;;;12.60;72.44
62946;BME280;52164;52.212;-1.010;2022-10-18T10:33:09;101968.00;;;12.67;72.45
62946;BME280;52164;52.212;-1.010;2022-10-18T10:35:57;101972.91;;;12.73;72.17
62946;BME280;52164;52.212;-1.010;2022-10-18T10:38:28;101967.27;;;12.79;72.16
62946;BME280;52164;52.212;-1.010;2022-10-18T10:40:58;101961.80;;;12.84;72.10
62946;BME280;52164;52.212;-1.010;2022-10-18T10:46:09;101956.01;;;12.94;71.68
62946;BME280;52164;52.212;-1.010;2022-10-18T10:48:56;101959.33;;;13.00;71.42
62946;BME280;52164;52.212;-1.010;2022-10-18T10:51:34;101952.80;;;13.09;71.33
62946;BME280;52164;52.212;-1.010;2022-10-18T10:54:04;101944.84;;;13.16;71.30
62946;BME280;52164;52.212;-1.010;2022-10-18T10:56:35;101946.00;;;13.25;71.14
62946;BME280;52164;52.212;-1.010;2022-10-18T10:59:16;101955.98;;;13.33;70.64
62946;BME280;52164;52.212;-1.010;2022-10-18T11:01:42;101958.79;;;13.42;70.55
62946;BME280;52164;52.212;-1.010;2022-10-18T11:04:29;101954.74;;;13.49;70.08
62946;BME280;52164;52.212;-1.010;2022-10-18T11:07:24;101950.32;;;13.56;69.83
62946;BME280;52164;52.212;-1.010;2022-10-18T11:10:24;101947.73;;;13.64;69.76
62946;BME280;52164;52.212;-1.010;2022-10-18T11:13:00;101950.85;;;13.72;69.32
62946;BME280;52164;52.212;-1.010;2022-10-18T11:15:32;101952.89;;;13.79;69.08
62946;BME280;52164;52.212;-1.010;2022-10-18T11:18:20;101948.63;;;13.83;68.54
62946;BME280;52164;52.212;-1.010;2022-10-18T11:20:53;101940.77;;;13.87;68.23
62946;BME280;52164;52.212;-1.010;2022-10-18T11:23:26;101932.73;;;13.91;68.10
62946;BME280;52164;52.212;-1.010;2022-10-18T11:26:19;101934.03;;;13.96;67.84
62946;BME280;52164;52.212;-1.010;2022-10-18T11:31:25;101935.35;;;14.05;67.38
62946;BME280;52164;52.212;-1.010;2022-10-18T11:34:31;101933.07;;;14.09;67.41
62946;BME280;52164;52.212;-1.010;2022-10-18T11:37:08;101928.08;;;14.15;67.41
62946;BME280;52164;52.212;-1.010;2022-10-18T11:40:30;101930.29;;;14.21;67.27
62946;BME280;52164;52.212;-1.010;2022-10-18T11:47:43;101915.48;;;14.36;66.94
62946;BME280;52164;52.212;-1.010;2022-10-18T11:53:15;101913.05;;;14.49;66.34
62946;BME280;52164;52.212;-1.010;2022-10-18T11:56:01;101914.16;;;14.55;65.54
62946;BME280;52164;52.212;-1.010;2022-10-18T11:58:45;101913.50;;;14.61;65.07
62946;BME280;52164;52.212;-1.010;2022-10-18T12:01:38;101911.03;;;14.67;64.99
62946;BME280;52164;52.212;-1.010;2022-10-18T12:04:12;101908.02;;;14.74;64.49
62946;BME280;52164;52.212;-1.010;2022-10-18T12:06:41;101904.43;;;14.79;63.86
62946;BME280;52164;52.212;-1.010;2022-10-18T12:09:16;101902.68;;;14.85;63.42
62946;BME280;52164;52.212;-1.010;2022-10-18T12:11:52;101897.84;;;14.90;63.17
62946;BME280;52164;52.212;-1.010;2022-10-18T12:14:26;101893.02;;;14.94;63.11
62946;BME280;52164;52.212;-1.010;2022-10-18T12:17:01;101890.15;;;14.99;62.78
62946;BME280;52164;52.212;-1.010;2022-10-18T12:19:29;101888.73;;;15.04;62.70
62946;BME280;52164;52.212;-1.010;2022-10-18T12:22:13;101891.63;;;15.09;62.62
62946;BME280;52164;52.212;-1.010;2022-10-18T12:24:40;101887.52;;;15.14;62.23
62946;BME280;52164;52.212;-1.010;2022-10-18T12:27:11;101891.11;;;15.18;61.85
62946;BME280;52164;52.212;-1.010;2022-10-18T12:32:14;101885.21;;;15.28;61.77
62946;BME280;52164;52.212;-1.010;2022-10-18T12:34:47;101888.81;;;15.33;61.65
62946;BME280;52164;52.212;-1.010;2022-10-18T12:39:58;101880.38;;;15.42;60.96
62946;BME280;52164;52.212;-1.010;2022-10-18T12:42:30;101874.62;;;15.48;60.71
62946;BME280;52164;52.212;-1.010;2022-10-18T12:45:18;101873.02;;;15.53;60.38
62946;BME280;52164;52.212;-1.010;2022-10-18T12:47:47;101875.02;;;15.57;60.24
62946;BME280;52164;52.212;-1.010;2022-10-18T12:50:35;101874.83;;;15.60;59.89
62946;BME280;52164;52.212;-1.010;2022-10-18T12:53:04;101867.62;;;15.65;59.76
62946;BME280;52164;52.212;-1.010;2022-10-18T12:55:35;101862.77;;;15.69;60.02
62946;BME280;52164;52.212;-1.010;2022-10-18T12:58:04;101860.44;;;15.74;59.50
62946;BME280;52164;52.212;-1.010;2022-10-18T13:03:40;101864.08;;;15.82;59.94
62946;BME280;52164;52.212;-1.010;2022-10-18T13:06:07;101862.80;;;15.89;59.39
62946;BME280;52164;52.212;-1.010;2022-10-18T13:08:41;101855.60;;;15.93;59.14
62946;BME280;52164;52.212;-1.010;2022-10-18T13:11:28;101850.92;;;15.97;59.06
62946;BME280;52164;52.212;-1.010;2022-10-18T13:14:18;101855.77;;;16.03;59.20
62946;BME280;52164;52.212;-1.010;2022-10-18T13:16:56;101857.39;;;16.09;58.60
62946;BME280;52164;52.212;-1.010;2022-10-18T13:19:38;101856.48;;;16.14;58.51
62946;BME280;52164;52.212;-1.010;2022-10-18T13:22:50;101853.23;;;16.19;58.42
62946;BME280;52164;52.212;-1.010;2022-10-18T13:25:23;101851.06;;;16.23;58.27
62946;BME280;52164;52.212;-1.010;2022-10-18T13:28:04;101853.02;;;16.31;58.39
62946;BME280;52164;52.212;-1.010;2022-10-18T13:30:39;101847.23;;;16.38;57.67
62946;BME280;52164;52.212;-1.010;2022-10-18T13:33:25;101846.13;;;16.47;57.47
62946;BME280;52164;52.212;-1.010;2022-10-18T13:38:40;101840.84;;;16.66;56.78
62946;BME280;52164;52.212;-1.010;2022-10-18T13:41:09;101836.27;;;16.76;56.10
62946;BME280;52164;52.212;-1.010;2022-10-18T13:44:08;101838.60;;;16.85;56.01
62946;BME280;52164;52.212;-1.010;2022-10-18T13:49:26;101839.41;;;17.06;54.96